createdAt,value
2022-11-27T00:00:45.530Z,27.47
2022-11-27T00:03:06.947Z,26.13
2022-11-27T00:05:28.222Z,28.00
2022-11-27T00:07:50.956Z,24.33
2022-11-27T00:10:12.310Z,23.90
2022-11-27T00:12:33.517Z,24.20
2022-11-27T00:14:55.701Z,26.30
2022-11-27T00:17:16.996Z,24.07
2022-11-27T00:19:38.525Z,22.90
2022-11-27T00:21:59.913Z,22.07
2022-11-27T00:24:22.507Z,24.10
2022-11-27T00:26:43.731Z,25.20
2022-11-27T00:29:05.523Z,26.77
2022-11-27T00:31:29.298Z,22.97
2022-11-27T00:33:50.741Z,22.80
2022-11-27T00:36:12.489Z,21.80
2022-11-27T00:38:38.528Z,20.83
2022-11-27T00:41:05.944Z,21.53
2022-11-27T00:43:27.174Z,21.30
2022-11-27T00:45:49.904Z,19.87
2022-11-27T00:48:10.817Z,19.73
2022-11-27T00:50:32.773Z,19.90
2022-11-27T00:52:53.836Z,19.83
2022-11-27T00:55:15.021Z,18.27
2022-11-27T00:57:37.611Z,19.67
2022-11-27T00:59:58.901Z,17.40
2022-11-27T01:02:20.185Z,18.00
2022-11-27T01:04:41.634Z,19.23
2022-11-27T01:07:03.090Z,17.23
2022-11-27T01:09:24.191Z,18.20
2022-11-27T01:11:45.359Z,19.93
2022-11-27T01:14:09.887Z,20.60
2022-11-27T01:16:31.645Z,18.83
2022-11-27T01:18:54.780Z,18.00
2022-11-27T01:21:16.758Z,17.00
2022-11-27T01:23:38.032Z,17.83
2022-11-27T01:26:00.972Z,18.00
2022-11-27T01:28:22.434Z,18.57
2022-11-27T01:30:45.075Z,19.77
2022-11-27T01:33:06.236Z,19.03
2022-11-27T01:35:27.362Z,17.43
2022-11-27T01:37:48.533Z,21.20
2022-11-27T01:40:10.259Z,16.87
2022-11-27T01:42:31.561Z,20.77
2022-11-27T01:44:54.400Z,18.73
2022-11-27T01:47:19.380Z,17.20
2022-11-27T01:49:42.144Z,18.13
2022-11-27T01:52:04.443Z,18.67
2022-11-27T01:54:27.267Z,17.47
2022-11-27T01:56:50.907Z,18.57
2022-11-27T01:59:12.522Z,19.53
2022-11-27T02:01:34.008Z,16.87
2022-11-27T02:03:59.247Z,18.80
2022-11-27T02:06:20.443Z,19.43
2022-11-27T02:08:41.941Z,19.20
2022-11-27T02:11:05.186Z,19.07
2022-11-27T02:13:30.074Z,17.47
2022-11-27T02:15:54.425Z,17.20
2022-11-27T02:18:19.891Z,16.97
2022-11-27T02:20:51.391Z,18.67
2022-11-27T02:23:19.276Z,17.93
2022-11-27T02:25:47.840Z,17.13
2022-11-27T02:28:30.088Z,17.43
2022-11-27T02:30:56.068Z,19.57
2022-11-27T02:33:20.854Z,18.13
2022-11-27T02:35:44.429Z,20.90
2022-11-27T02:38:08.733Z,18.47
2022-11-27T02:40:32.215Z,16.87
2022-11-27T02:42:55.678Z,15.80
2022-11-27T02:45:18.515Z,14.50
2022-11-27T02:47:41.948Z,14.90
2022-11-27T02:50:03.627Z,15.70
2022-11-27T02:52:25.637Z,14.00
2022-11-27T02:54:48.706Z,14.23
2022-11-27T02:57:11.026Z,15.27
2022-11-27T02:59:33.051Z,17.20
2022-11-27T03:01:56.216Z,20.77
2022-11-27T03:04:20.555Z,16.60
2022-11-27T03:06:43.462Z,16.07
2022-11-27T03:09:07.725Z,18.00
2022-11-27T03:11:30.756Z,14.67
2022-11-27T03:13:54.304Z,15.77
2022-11-27T03:16:17.674Z,16.33
2022-11-27T03:18:42.265Z,16.73
2022-11-27T03:21:06.618Z,18.67
2022-11-27T03:23:28.632Z,18.37
2022-11-27T03:25:49.516Z,17.30
2022-11-27T03:28:11.537Z,19.67
2022-11-27T03:30:33.019Z,16.47
2022-11-27T03:32:54.198Z,16.67
2022-11-27T03:35:17.234Z,18.73
2022-11-27T03:37:40.117Z,16.27
2022-11-27T03:40:01.247Z,15.63
2022-11-27T03:42:25.155Z,17.27
2022-11-27T03:44:49.237Z,15.47
2022-11-27T03:47:13.414Z,15.80
2022-11-27T03:49:37.796Z,15.07
2022-11-27T03:52:04.167Z,15.80
2022-11-27T03:54:29.591Z,16.27
2022-11-27T03:56:57.006Z,14.73
2022-11-27T03:59:21.223Z,14.50
2022-11-27T04:01:42.362Z,14.67
2022-11-27T04:04:03.502Z,14.53
2022-11-27T04:06:24.764Z,15.07
2022-11-27T04:08:46.623Z,14.13
2022-11-27T04:11:09.502Z,16.33
2022-11-27T04:13:30.406Z,15.50
2022-11-27T04:15:51.626Z,14.77
2022-11-27T04:18:13.297Z,14.70
2022-11-27T04:20:34.492Z,14.47
2022-11-27T04:22:55.734Z,14.83
2022-11-27T04:25:16.932Z,12.50
2022-11-27T04:27:39.757Z,14.53
2022-11-27T04:30:01.172Z,13.30
2022-11-27T04:32:22.543Z,13.07
2022-11-27T04:34:43.735Z,12.47
2022-11-27T04:37:04.946Z,13.17
2022-11-27T04:39:26.342Z,12.57
2022-11-27T04:41:47.722Z,13.23
2022-11-27T04:44:10.326Z,12.83
2022-11-27T04:46:31.510Z,12.67
2022-11-27T04:48:52.800Z,13.17
2022-11-27T04:51:13.953Z,13.50
2022-11-27T04:53:35.168Z,15.80
2022-11-27T04:55:56.345Z,11.83
2022-11-27T04:58:17.631Z,12.10
2022-11-27T05:00:40.351Z,11.90
2022-11-27T05:03:01.718Z,13.33
2022-11-27T05:05:22.890Z,12.90
2022-11-27T05:07:44.396Z,15.10
2022-11-27T05:10:06.070Z,14.10
2022-11-27T05:12:27.165Z,12.13
2022-11-27T05:14:48.528Z,15.50
2022-11-27T05:17:11.239Z,13.73
2022-11-27T05:19:32.224Z,10.83
2022-11-27T05:21:54.868Z,10.60
2022-11-27T05:24:16.869Z,13.83
2022-11-27T05:26:38.239Z,13.10
2022-11-27T05:28:59.210Z,15.13
2022-11-27T05:31:20.589Z,13.93
2022-11-27T05:33:42.871Z,14.40
2022-11-27T05:36:04.112Z,12.50
2022-11-27T05:38:25.399Z,12.87
2022-11-27T05:40:46.926Z,12.70
2022-11-27T05:43:08.131Z,11.63
2022-11-27T05:45:29.417Z,11.27
2022-11-27T05:47:50.715Z,12.70
2022-11-27T05:50:13.350Z,11.63
2022-11-27T05:52:34.504Z,11.27
2022-11-27T05:54:56.444Z,11.90
2022-11-27T05:57:17.630Z,12.73
2022-11-27T05:59:38.973Z,10.83
2022-11-27T06:02:00.552Z,13.03
2022-11-27T06:04:21.728Z,12.37
2022-11-27T06:06:44.371Z,13.07
2022-11-27T06:09:10.897Z,12.73
2022-11-27T06:11:34.051Z,11.27
2022-11-27T06:13:55.137Z,11.40
2022-11-27T06:16:17.939Z,10.37
2022-11-27T06:18:39.247Z,11.33
2022-11-27T06:21:00.416Z,11.60
2022-11-27T06:23:23.222Z,10.67
2022-11-27T06:25:44.052Z,11.87
2022-11-27T06:28:05.527Z,9.43
2022-11-27T06:30:26.331Z,9.13
2022-11-27T06:32:47.421Z,10.40
2022-11-27T06:35:09.069Z,12.03
2022-11-27T06:37:31.185Z,14.20
2022-11-27T06:39:53.526Z,12.93
2022-11-27T06:42:14.838Z,12.90
2022-11-27T06:44:36.149Z,13.33
2022-11-27T06:46:57.506Z,14.30
2022-11-27T06:49:20.641Z,12.50
2022-11-27T06:51:41.984Z,13.47
2022-11-27T06:54:03.727Z,13.50
2022-11-27T06:56:27.067Z,12.07
2022-11-27T06:58:48.012Z,12.97
2022-11-27T07:01:10.355Z,15.60
2022-11-27T07:03:31.701Z,14.00
2022-11-27T07:05:52.664Z,15.80
2022-11-27T07:08:13.726Z,11.87
2022-11-27T07:10:35.796Z,13.33
2022-11-27T07:12:58.172Z,14.23
2022-11-27T07:15:19.518Z,14.47
2022-11-27T07:17:41.778Z,15.20
2022-11-27T07:20:03.177Z,11.30
2022-11-27T07:22:24.400Z,11.60
2022-11-27T07:24:45.689Z,12.73
2022-11-27T07:27:07.074Z,12.33
2022-11-27T07:29:29.784Z,11.03
2022-11-27T07:31:51.709Z,13.40
2022-11-27T07:34:17.060Z,13.67
2022-11-27T07:36:42.141Z,14.57
2022-11-27T07:39:03.676Z,13.13
2022-11-27T07:41:29.146Z,14.07
2022-11-27T07:43:53.619Z,10.57
2022-11-27T07:46:17.355Z,10.93
2022-11-27T07:48:39.397Z,11.30
2022-11-27T07:51:01.387Z,11.30
2022-11-27T07:53:22.741Z,8.90
2022-11-27T07:55:44.278Z,9.17
2022-11-27T07:58:05.699Z,8.80
2022-11-27T08:00:27.180Z,7.73
2022-11-27T08:02:49.737Z,9.67
2022-11-27T08:05:13.246Z,8.90
2022-11-27T08:07:34.773Z,8.60
2022-11-27T08:09:57.592Z,9.53
2022-11-27T08:12:18.716Z,9.40
2022-11-27T08:14:40.179Z,9.20
2022-11-27T08:17:01.277Z,8.50
2022-11-27T08:19:23.884Z,9.03
2022-11-27T08:21:44.885Z,9.00
2022-11-27T08:24:06.593Z,8.80
2022-11-27T08:26:28.661Z,9.07
2022-11-27T08:28:49.576Z,9.50
2022-11-27T08:31:12.297Z,10.13
2022-11-27T08:33:33.550Z,10.67
2022-11-27T08:35:55.957Z,11.30
2022-11-27T08:38:17.254Z,11.20
2022-11-27T08:40:38.462Z,10.47
2022-11-27T08:42:59.633Z,10.30
2022-11-27T08:45:20.977Z,14.03
2022-11-27T08:47:43.348Z,14.17
2022-11-27T08:50:04.480Z,10.00
2022-11-27T08:52:27.237Z,9.97
2022-11-27T08:54:50.899Z,9.47
2022-11-27T08:57:17.367Z,12.97
2022-11-27T08:59:38.638Z,11.10
2022-11-27T09:01:59.784Z,12.20
2022-11-27T09:04:21.149Z,12.20
2022-11-27T09:06:42.057Z,15.20
2022-11-27T09:09:05.915Z,16.17
2022-11-27T09:11:27.243Z,23.57
2022-11-27T09:13:48.804Z,14.83
2022-11-27T09:16:11.453Z,13.00
2022-11-27T09:18:32.670Z,17.47
2022-11-27T09:20:58.097Z,15.23
2022-11-27T09:23:19.249Z,14.77
2022-11-27T09:25:41.890Z,12.77
2022-11-27T09:28:02.791Z,11.87
2022-11-27T09:30:24.110Z,12.97
2022-11-27T09:32:45.387Z,16.53
2022-11-27T09:35:06.923Z,15.87
2022-11-27T09:37:28.173Z,23.60
2022-11-27T09:39:49.276Z,14.93
2022-11-27T09:42:18.405Z,13.63
2022-11-27T09:44:42.901Z,13.07
2022-11-27T09:47:07.816Z,11.20
2022-11-27T09:49:32.243Z,11.03
2022-11-27T09:51:56.047Z,11.20
2022-11-27T09:54:19.599Z,13.13
2022-11-27T09:56:42.283Z,12.70
2022-11-27T09:59:06.202Z,12.13
2022-11-27T10:01:34.929Z,12.27
2022-11-27T10:04:01.949Z,12.03
2022-11-27T10:06:28.013Z,12.53
2022-11-27T10:08:53.610Z,13.23
2022-11-27T10:11:20.817Z,11.80
2022-11-27T10:13:49.127Z,12.17
2022-11-27T10:16:17.036Z,12.30
2022-11-27T10:18:41.240Z,12.57
2022-11-27T10:21:05.376Z,12.37
2022-11-27T10:23:33.685Z,12.37
2022-11-27T10:25:57.156Z,12.13
2022-11-27T10:28:24.711Z,11.27
2022-11-27T10:30:48.911Z,13.07
2022-11-27T10:33:17.108Z,11.23
2022-11-27T10:35:39.055Z,10.67
2022-11-27T10:38:07.567Z,11.20
2022-11-27T10:40:31.532Z,12.03
2022-11-27T10:42:56.551Z,13.20
2022-11-27T10:45:20.444Z,14.20
2022-11-27T10:47:43.694Z,11.87
2022-11-27T10:50:07.560Z,12.97
2022-11-27T10:52:28.687Z,13.10
2022-11-27T10:54:52.281Z,13.30
2022-11-27T10:57:18.178Z,12.17
2022-11-27T10:59:43.559Z,12.57
2022-11-27T11:02:05.717Z,11.27
2022-11-27T11:04:43.522Z,12.40
2022-11-27T11:07:24.054Z,13.00
2022-11-27T11:09:48.646Z,13.27
2022-11-27T11:12:10.416Z,13.50
2022-11-27T11:14:31.346Z,14.07
2022-11-27T11:16:53.394Z,13.93
2022-11-27T11:19:24.781Z,13.87
2022-11-27T11:21:45.696Z,12.90
2022-11-27T11:24:14.622Z,13.73
2022-11-27T11:26:39.000Z,14.97
2022-11-27T11:29:01.830Z,14.60
2022-11-27T11:31:24.692Z,14.40
2022-11-27T11:33:50.985Z,13.03
2022-11-27T11:36:12.404Z,12.57
2022-11-27T11:38:34.006Z,12.73
2022-11-27T11:41:00.821Z,11.60
2022-11-27T11:43:25.904Z,11.77
2022-11-27T11:45:48.855Z,11.47
2022-11-27T11:48:21.507Z,11.90
2022-11-27T11:50:45.311Z,11.37
2022-11-27T11:53:08.946Z,13.23
2022-11-27T11:55:35.210Z,13.50
2022-11-27T11:58:04.192Z,13.23
2022-11-27T12:00:30.327Z,10.57
2022-11-27T12:03:01.341Z,11.80
2022-11-27T12:05:28.062Z,12.73
2022-11-27T12:08:16.099Z,12.53
2022-11-27T12:10:42.382Z,12.97
2022-11-27T12:13:09.085Z,13.43
2022-11-27T12:15:32.669Z,12.30
2022-11-27T12:17:58.771Z,13.00
2022-11-27T12:20:22.520Z,13.47
2022-11-27T12:23:04.671Z,14.20
2022-11-27T12:25:29.993Z,13.70
2022-11-27T12:27:57.718Z,13.17
2022-11-27T12:30:21.263Z,16.40
2022-11-27T12:32:50.780Z,26.50
2022-11-27T12:35:26.859Z,13.87
2022-11-27T12:37:53.706Z,17.47
2022-11-27T12:40:22.795Z,13.97
2022-11-27T12:42:49.008Z,13.57
2022-11-27T12:45:16.377Z,14.70
2022-11-27T12:47:40.751Z,8.10
2022-11-27T12:50:05.771Z,29.37
2022-11-27T12:52:30.080Z,6.27
2022-11-27T12:54:53.723Z,4.83
2022-11-27T12:57:17.872Z,6.07
2022-11-27T12:59:43.404Z,4.00
2022-11-27T13:02:11.959Z,6.20
2022-11-27T13:04:36.814Z,3.57
2022-11-27T13:07:01.299Z,3.90
2022-11-27T13:09:26.810Z,3.63
2022-11-27T13:11:48.742Z,3.47
2022-11-27T13:14:12.550Z,3.70
2022-11-27T13:16:36.239Z,4.27
2022-11-27T13:19:01.066Z,3.77
2022-11-27T13:21:25.254Z,3.50
2022-11-27T13:23:46.550Z,3.70
2022-11-27T13:26:12.488Z,3.93
2022-11-27T13:28:36.998Z,3.20
2022-11-27T13:30:59.361Z,3.40
2022-11-27T13:33:25.270Z,3.47
2022-11-27T13:35:46.399Z,3.40
2022-11-27T13:38:11.180Z,3.47
2022-11-27T13:40:33.743Z,3.90
2022-11-27T13:42:56.226Z,3.73
2022-11-27T13:45:21.258Z,3.70
2022-11-27T13:47:44.086Z,3.70
2022-11-27T13:50:07.465Z,3.90
2022-11-27T13:52:29.529Z,3.43
2022-11-27T13:54:56.366Z,3.70
2022-11-27T13:57:18.515Z,3.70
2022-11-27T13:59:39.813Z,3.97
2022-11-27T14:02:01.969Z,3.80
2022-11-27T14:04:23.267Z,3.70
2022-11-27T14:06:44.540Z,4.00
2022-11-27T14:09:07.038Z,4.67
2022-11-27T14:11:34.565Z,4.53
2022-11-27T14:13:55.492Z,4.23
2022-11-27T14:16:25.122Z,4.70
2022-11-27T14:18:50.165Z,4.70
2022-11-27T14:21:22.897Z,5.13
2022-11-27T14:23:50.134Z,4.97
2022-11-27T14:26:20.471Z,5.07
2022-11-27T14:28:43.852Z,4.40
2022-11-27T14:31:05.978Z,5.30
2022-11-27T14:33:27.884Z,5.40
2022-11-27T14:35:50.067Z,4.80
2022-11-27T14:38:11.689Z,4.90
2022-11-27T14:40:32.627Z,5.13
2022-11-27T14:42:53.826Z,5.10
2022-11-27T14:45:18.502Z,5.70
2022-11-27T14:47:40.353Z,5.53
2022-11-27T14:50:01.517Z,5.33
2022-11-27T14:52:23.230Z,5.30
2022-11-27T14:54:45.672Z,5.33
2022-11-27T14:57:07.105Z,5.60
2022-11-27T14:59:28.498Z,5.77
2022-11-27T15:02:00.556Z,6.20
2022-11-27T15:04:29.022Z,6.30
2022-11-27T15:06:50.153Z,6.30
2022-11-27T15:09:31.194Z,5.73
2022-11-27T15:11:56.436Z,6.23
2022-11-27T15:14:18.357Z,6.50
2022-11-27T15:16:44.431Z,6.70
2022-11-27T15:19:07.134Z,6.50
2022-11-27T15:21:28.567Z,6.43
2022-11-27T15:23:50.666Z,6.30
2022-11-27T15:26:16.787Z,7.13
2022-11-27T15:28:41.187Z,7.10
2022-11-27T15:31:02.490Z,6.90
2022-11-27T15:33:28.295Z,7.23
2022-11-27T15:35:53.917Z,11.20
2022-11-27T15:38:18.589Z,9.37
2022-11-27T15:40:41.103Z,8.60
2022-11-27T15:43:02.161Z,7.53
2022-11-27T15:45:23.900Z,8.47
2022-11-27T15:47:45.442Z,7.50
2022-11-27T15:50:07.616Z,8.53
2022-11-27T15:52:30.263Z,8.60
2022-11-27T15:54:51.969Z,8.67
2022-11-27T15:57:13.483Z,8.27
2022-11-27T15:59:34.707Z,9.20
2022-11-27T16:01:57.963Z,8.83
2022-11-27T16:04:19.025Z,10.33
2022-11-27T16:06:40.213Z,10.23
2022-11-27T16:09:02.811Z,15.03
2022-11-27T16:11:24.684Z,10.77
2022-11-27T16:13:45.592Z,10.13
2022-11-27T16:16:08.457Z,9.60
2022-11-27T16:18:29.815Z,10.20
2022-11-27T16:20:50.749Z,10.00
2022-11-27T16:23:12.177Z,10.57
2022-11-27T16:25:34.946Z,9.80
2022-11-27T16:28:02.274Z,10.20
2022-11-27T16:30:24.911Z,11.50
2022-11-27T16:32:46.118Z,10.17
2022-11-27T16:35:07.588Z,9.23
2022-11-27T16:37:28.703Z,10.63
2022-11-27T16:39:50.088Z,9.90
2022-11-27T16:42:12.733Z,10.13
2022-11-27T16:44:34.715Z,10.27
2022-11-27T16:46:55.739Z,10.53
2022-11-27T16:49:17.151Z,10.37
2022-11-27T16:51:39.429Z,10.67
2022-11-27T16:54:01.656Z,10.53
2022-11-27T16:56:23.968Z,10.17
2022-11-27T16:58:47.164Z,10.77
2022-11-27T17:01:08.404Z,10.37
2022-11-27T17:03:29.366Z,10.40
2022-11-27T17:05:51.667Z,9.93
2022-11-27T17:08:12.873Z,24.10
2022-11-27T17:10:34.346Z,16.80
2022-11-27T17:12:55.598Z,14.00
2022-11-27T17:15:18.474Z,18.90
2022-11-27T17:17:41.271Z,18.27
2022-11-27T17:20:02.677Z,17.33
2022-11-27T17:22:24.054Z,16.20
2022-11-27T17:24:45.532Z,17.53
2022-11-27T17:27:06.935Z,20.10
2022-11-27T17:29:31.081Z,18.07
2022-11-27T17:31:56.162Z,13.70
2022-11-27T17:34:18.146Z,11.73
2022-11-27T17:36:41.954Z,13.27
2022-11-27T17:39:03.745Z,11.80
2022-11-27T17:41:26.181Z,12.63
2022-11-27T17:43:47.681Z,12.93
2022-11-27T17:46:09.393Z,12.40
2022-11-27T17:48:31.954Z,12.97
2022-11-27T17:50:53.725Z,12.53
2022-11-27T17:53:14.940Z,13.53
2022-11-27T17:55:36.035Z,12.37
2022-11-27T17:57:57.206Z,13.63
2022-11-27T18:00:18.724Z,14.30
2022-11-27T18:02:39.716Z,16.03
2022-11-27T18:05:02.507Z,15.13
2022-11-27T18:07:24.403Z,13.93
2022-11-27T18:09:45.546Z,14.53
2022-11-27T18:12:07.723Z,13.90
2022-11-27T18:14:29.306Z,15.13
2022-11-27T18:16:50.633Z,14.20
2022-11-27T18:19:12.184Z,13.60
2022-11-27T18:21:35.211Z,14.10
2022-11-27T18:27:06.750Z,13.50
2022-11-27T18:29:19.707Z,13.23
2022-11-27T18:31:41.425Z,13.60
2022-11-27T18:34:02.940Z,12.90
2022-11-27T18:36:24.888Z,12.17
2022-11-27T18:38:47.585Z,11.97
2022-11-27T18:41:09.280Z,12.20
2022-11-27T18:43:30.643Z,12.57
2022-11-27T18:45:52.641Z,12.13
2022-11-27T18:48:13.642Z,12.03
2022-11-27T18:50:34.986Z,13.87
2022-11-27T18:52:56.541Z,14.10
2022-11-27T18:55:19.033Z,14.40
2022-11-27T18:57:40.146Z,14.07
2022-11-27T19:00:01.404Z,12.27
2022-11-27T19:02:22.686Z,12.13
2022-11-27T19:04:44.945Z,12.97
2022-11-27T19:07:06.322Z,11.93
2022-11-27T19:09:27.364Z,13.73
2022-11-27T19:11:49.898Z,13.13
2022-11-27T19:14:11.154Z,12.63
2022-11-27T19:16:33.275Z,12.47
2022-11-27T19:18:56.610Z,12.97
2022-11-27T19:21:19.063Z,11.93
2022-11-27T19:23:40.396Z,11.87
2022-11-27T19:26:04.877Z,11.67
2022-11-27T19:28:27.543Z,10.77
2022-11-27T19:30:48.905Z,11.00
2022-11-27T19:33:10.107Z,11.40
2022-11-27T19:35:31.485Z,12.37
2022-11-27T19:37:52.668Z,11.23
2022-11-27T19:40:14.522Z,10.47
2022-11-27T19:42:35.527Z,11.83
2022-11-27T19:44:57.970Z,13.50
2022-11-27T19:47:19.509Z,13.70
2022-11-27T19:49:40.918Z,14.10
2022-11-27T19:52:02.190Z,11.43
2022-11-27T19:54:23.642Z,11.90
2022-11-27T19:56:44.938Z,11.00
2022-11-27T19:59:06.438Z,11.10
2022-11-27T20:01:29.386Z,10.63
2022-11-27T20:03:50.879Z,11.10
2022-11-27T20:06:12.884Z,10.70
2022-11-27T20:08:34.159Z,10.97
2022-11-27T20:10:55.433Z,11.37
2022-11-27T20:13:16.542Z,10.87
2022-11-27T20:15:37.710Z,11.37
2022-11-27T20:18:00.286Z,10.70
2022-11-27T20:20:21.584Z,10.57
2022-11-27T20:22:43.044Z,11.47
2022-11-27T20:25:19.097Z,11.00
2022-11-27T20:27:41.448Z,10.40
2022-11-27T20:30:02.825Z,10.70
2022-11-27T20:32:24.321Z,10.97
2022-11-27T20:34:47.213Z,10.87
2022-11-27T20:37:08.509Z,11.40
2022-11-27T20:39:29.492Z,10.83
2022-11-27T20:41:51.915Z,11.33
2022-11-27T20:44:13.391Z,10.80
2022-11-27T20:46:34.817Z,10.60
2022-11-27T20:48:56.546Z,10.00
2022-11-27T20:51:21.069Z,10.30
2022-11-27T20:53:43.256Z,11.33
2022-11-27T20:56:04.826Z,10.73
2022-11-27T20:58:25.810Z,10.53
2022-11-27T21:00:47.265Z,10.93
2022-11-27T21:03:08.458Z,9.80
2022-11-27T21:05:29.740Z,9.83
2022-11-27T21:07:52.452Z,10.50
2022-11-27T21:10:16.627Z,10.73
2022-11-27T21:12:38.070Z,10.67
2022-11-27T21:14:59.232Z,10.77
2022-11-27T21:17:20.975Z,10.40
2022-11-27T21:19:42.427Z,9.87
2022-11-27T21:22:03.833Z,9.63
2022-11-27T21:24:28.364Z,9.47
2022-11-27T21:26:49.752Z,10.40
2022-11-27T21:29:12.405Z,10.20
2022-11-27T21:31:37.490Z,11.30
2022-11-27T21:34:00.216Z,10.37
2022-11-27T21:36:22.474Z,10.03
2022-11-27T21:38:43.606Z,10.37
2022-11-27T21:41:05.977Z,10.30
2022-11-27T21:43:26.739Z,9.63
2022-11-27T21:45:48.291Z,9.40
2022-11-27T21:48:14.356Z,9.33
2022-11-27T21:50:35.802Z,10.47
2022-11-27T21:52:57.134Z,9.20
2022-11-27T21:55:18.548Z,10.13
2022-11-27T21:57:41.213Z,11.50
2022-11-27T22:00:02.219Z,10.53
2022-11-27T22:02:23.552Z,11.27
2022-11-27T22:04:45.048Z,10.43
2022-11-27T22:07:07.752Z,9.27
2022-11-27T22:09:33.248Z,9.23
2022-11-27T22:11:54.405Z,8.77
2022-11-27T22:14:17.442Z,8.97
2022-11-27T22:16:44.794Z,8.77
2022-11-27T22:19:06.429Z,9.77
2022-11-27T22:21:28.344Z,9.73
2022-11-27T22:23:49.750Z,8.60
2022-11-27T22:26:11.879Z,9.13
2022-11-27T22:28:32.988Z,9.30
2022-11-27T22:30:55.752Z,9.57
2022-11-27T22:33:17.055Z,8.80
2022-11-27T22:35:38.374Z,9.23
2022-11-27T22:37:59.598Z,9.60
2022-11-27T22:40:21.443Z,9.30
2022-11-27T22:42:42.794Z,9.00
2022-11-27T22:45:04.184Z,8.50
2022-11-27T22:47:26.610Z,9.30
2022-11-27T22:49:47.800Z,8.80
2022-11-27T22:52:09.061Z,9.30
2022-11-27T22:54:30.157Z,10.43
2022-11-27T22:56:51.516Z,9.53
2022-11-27T23:01:54.705Z,15.00
2022-11-27T23:04:17.235Z,11.97
2022-11-27T23:06:38.648Z,10.07
2022-11-27T23:09:00.002Z,10.00
2022-11-27T23:11:22.741Z,10.10
2022-11-27T23:13:49.427Z,9.60
2022-11-27T23:16:11.153Z,9.63
2022-11-27T23:18:32.698Z,8.70
2022-11-27T23:20:55.298Z,8.27
2022-11-27T23:23:16.619Z,8.70
2022-11-27T23:25:38.358Z,8.97
2022-11-27T23:27:59.602Z,8.73
2022-11-27T23:30:21.026Z,8.53
2022-11-27T23:32:43.950Z,8.37
2022-11-27T23:35:05.286Z,8.80
2022-11-27T23:37:28.522Z,9.87
2022-11-27T23:39:49.707Z,8.77
2022-11-27T23:42:10.966Z,9.90
2022-11-27T23:44:32.062Z,8.27
2022-11-27T23:46:53.269Z,8.90
2022-11-27T23:49:14.447Z,9.20
2022-11-27T23:51:35.773Z,8.70
2022-11-27T23:53:59.077Z,8.83
2022-11-27T23:56:21.511Z,8.90
2022-11-27T23:58:46.949Z,8.43
